Time;durP1;ratioP1;P1;durP2;ratioP2;P2;SDS_P1;SDS_P2;PMS_P1;PMS_P2;Temp;Humidity;BMP_temperature;BMP_pressure;BME280_temperature;BME280_humidity;BME280_pressure;Samples;Min_cycle;Max_cycle;Signal;HPM_P1;HPM_P2
2023/09/30 00:00:13;;;;;;;;;;;;;;;15.97;96.26;101336.54;106239;1256;74759;-81
2023/09/30 00:02:41;;;;;;;;;;;;;;;15.85;96.82;101337.18;106127;1260;68658;-81
2023/09/30 00:05:10;;;;;;;;;;;;;;;15.80;97.18;101335.08;106541;1260;72667;-82
2023/09/30 00:07:37;;;;;;;;;;;;;;;15.81;97.29;101335.90;106233;1257;60417;-83
2023/09/30 00:10:05;;;;;;;;;;;;;;;15.87;96.93;101333.70;106218;1256;60300;-81
2023/09/30 00:12:33;;;;;;;;;;;;;;;15.88;97.18;101339.07;106071;1260;73956;-84
2023/09/30 00:15:01;;;;;;;;;;;;;;;15.81;97.88;101331.60;106087;1260;68777;-81
2023/09/30 00:17:28;;;;;;;;;;;;;;;15.79;98.33;101331.58;106264;1256;70504;-83
2023/09/30 00:19:56;;;;;;;;;;;;;;;15.85;97.26;101331.55;106289;1254;60373;-81
2023/09/30 00:22:24;;;;;;;;;;;;;;;15.86;96.75;101332.60;107299;1254;59785;-83
2023/09/30 00:24:51;;;;;;;;;;;;;;;15.86;96.17;101334.80;106309;1257;74319;-81
2023/09/30 00:27:19;;;;;;;;;;;;;;;15.83;95.39;101332.73;106326;1254;67134;-81
2023/09/30 00:29:47;;;;;;;;;;;;;;;15.77;95.43;101332.88;106361;1257;72712;-83
2023/09/30 00:32:14;;;;;;;;;;;;;;;15.82;93.98;101338.05;106367;1255;60485;-80
2023/09/30 00:34:42;;;;;;;;;;;;;;;15.84;92.98;101332.23;106144;1260;60977;-83
2023/09/30 00:37:10;;;;;;;;;;;;;;;15.83;92.61;101328.48;106044;1256;71606;-83
2023/09/30 00:39:38;;;;;;;;;;;;;;;15.81;92.58;101325.70;106146;1261;67774;-83
2023/09/30 00:42:06;;;;;;;;;;;;;;;15.67;93.80;101328.54;106957;1256;70350;-83
2023/09/30 00:44:34;;;;;;;;;;;;;;;15.47;95.69;101328.13;106775;1260;60348;-81
2023/09/30 00:47:01;;;;;;;;;;;;;;;15.51;96.29;101328.54;106235;1263;60395;-81
2023/09/30 00:49:29;;;;;;;;;;;;;;;15.67;95.58;101326.27;106268;1257;72656;-83
2023/09/30 00:51:57;;;;;;;;;;;;;;;15.76;95.21;101324.39;106195;1261;67636;-83
2023/09/30 00:54:25;;;;;;;;;;;;;;;15.71;95.27;101321.67;106239;1254;71673;-84
2023/09/30 00:56:53;;;;;;;;;;;;;;;15.76;94.85;101321.13;106247;1256;60644;-83
2023/09/30 00:59:20;;;;;;;;;;;;;;;15.71;94.34;101323.39;106365;1260;60342;-83
2023/09/30 01:01:48;;;;;;;;;;;;;;;15.67;94.09;101323.64;107266;1257;72661;-81
2023/09/30 01:04:17;;;;;;;;;;;;;;;15.60;94.06;101319.63;106364;1260;70988;-83
2023/09/30 01:06:47;;;;;;;;;;;;;;;15.63;93.36;101323.67;106164;1257;71063;-83
2023/09/30 01:09:15;;;;;;;;;;;;;;;15.55;93.74;101322.21;106249;1258;60957;-83
2023/09/30 01:11:42;;;;;;;;;;;;;;;15.41;95.17;101322.14;106221;1257;60336;-83
2023/09/30 01:14:26;;;;;;;;;;;;;;;15.43;95.54;101321.06;106228;1254;73828;-81
2023/09/30 01:16:55;;;;;;;;;;;;;;;15.42;95.81;101318.77;106310;1259;67895;-81
2023/09/30 01:19:25;;;;;;;;;;;;;;;15.39;95.84;101316.38;106398;1260;71405;-81
2023/09/30 01:21:56;;;;;;;;;;;;;;;15.36;95.41;101311.83;106541;1259;60559;-84
2023/09/30 01:24:24;;;;;;;;;;;;;;;15.21;96.36;101317.97;106420;1257;60344;-83
2023/09/30 01:26:53;;;;;;;;;;;;;;;15.14;96.89;101314.91;106185;1258;72888;-81
2023/09/30 01:29:25;;;;;;;;;;;;;;;14.99;97.51;101314.09;106352;1260;68376;-81
2023/09/30 01:31:53;;;;;;;;;;;;;;;15.13;96.22;101314.80;106362;1254;72676;-81
2023/09/30 01:34:22;;;;;;;;;;;;;;;15.11;96.35;101317.02;106394;1259;60456;-83
2023/09/30 01:36:50;;;;;;;;;;;;;;;15.06;96.59;101316.45;106688;1254;60480;-84
2023/09/30 01:39:18;;;;;;;;;;;;;;;14.99;97.17;101312.16;106184;1254;73000;-83
2023/09/30 01:41:46;;;;;;;;;;;;;;;15.01;96.44;101314.95;106321;1257;67445;-80
2023/09/30 01:44:14;;;;;;;;;;;;;;;14.99;96.54;101313.65;106268;1258;72724;-80
2023/09/30 01:46:41;;;;;;;;;;;;;;;15.05;96.38;101317.68;106174;1257;60444;-81
2023/09/30 01:49:09;;;;;;;;;;;;;;;14.86;97.89;101313.77;106156;1260;60540;-80
2023/09/30 01:51:37;;;;;;;;;;;;;;;14.97;97.82;101315.36;107118;1260;73832;-83
2023/09/30 01:54:05;;;;;;;;;;;;;;;15.06;96.97;101316.41;106176;1259;68735;-84
2023/09/30 01:56:34;;;;;;;;;;;;;;;15.11;96.61;101314.59;106337;1258;72734;-81
2023/09/30 01:59:01;;;;;;;;;;;;;;;15.15;96.32;101315.63;106357;1257;60518;-80
2023/09/30 02:01:29;;;;;;;;;;;;;;;15.19;96.27;101315.45;106257;1260;59224;-80
2023/09/30 02:03:57;;;;;;;;;;;;;;;15.22;96.39;101317.15;106897;1254;72435;-83
2023/09/30 02:06:25;;;;;;;;;;;;;;;15.27;96.44;101312.20;106465;1256;67798;-83
2023/09/30 02:08:53;;;;;;;;;;;;;;;15.20;97.24;101312.98;106279;1258;71864;-83
2023/09/30 02:11:21;;;;;;;;;;;;;;;15.20;97.64;101312.05;106252;1260;60457;-82
2023/09/30 02:13:48;;;;;;;;;;;;;;;15.21;97.63;101307.89;106114;1254;60332;-83
2023/09/30 02:16:16;;;;;;;;;;;;;;;15.21;97.59;101305.46;106212;1255;73816;-80
2023/09/30 02:18:50;;;;;;;;;;;;;;;15.13;98.16;101306.00;106894;1254;67613;-81
2023/09/30 02:21:18;;;;;;;;;;;;;;;15.17;98.10;101305.95;106235;1254;71706;-80
2023/09/30 02:23:47;;;;;;;;;;;;;;;15.21;97.74;101307.34;106316;1254;61753;-83
2023/09/30 02:26:17;;;;;;;;;;;;;;;15.21;96.89;101305.47;106117;1254;60625;-81
2023/09/30 02:28:44;;;;;;;;;;;;;;;15.17;96.50;101303.82;106310;1255;73889;-81
2023/09/30 02:31:12;;;;;;;;;;;;;;;15.11;96.10;101299.51;106099;1261;67449;-81
2023/09/30 02:33:40;;;;;;;;;;;;;;;14.98;96.59;101298.96;106990;1258;71446;-80
2023/09/30 02:36:08;;;;;;;;;;;;;;;14.83;97.39;101288.85;106263;1259;60453;-84
2023/09/30 02:38:40;;;;;;;;;;;;;;;14.63;99.10;101295.95;106313;1259;60460;-80
2023/09/30 02:41:08;;;;;;;;;;;;;;;14.62;99.06;101289.56;106242;1254;72717;-81
2023/09/30 02:43:35;;;;;;;;;;;;;;;14.52;99.64;101295.44;106190;1258;67280;-81
2023/09/30 02:46:03;;;;;;;;;;;;;;;14.73;98.70;101287.23;106953;1258;71502;-83
2023/09/30 02:48:32;;;;;;;;;;;;;;;14.88;97.19;101285.79;106167;1256;60482;-80
2023/09/30 02:50:59;;;;;;;;;;;;;;;14.92;96.90;101284.92;106240;1254;60403;-83
2023/09/30 02:53:28;;;;;;;;;;;;;;;14.90;97.02;101283.13;106139;1259;73810;-83
2023/09/30 02:55:59;;;;;;;;;;;;;;;14.86;97.50;101282.01;106319;1254;67128;-83
2023/09/30 02:58:28;;;;;;;;;;;;;;;14.61;99.24;101279.33;106287;1257;72757;-83
2023/09/30 03:00:56;;;;;;;;;;;;;;;14.75;98.50;101282.14;106651;1260;62640;-83
2023/09/30 03:03:25;;;;;;;;;;;;;;;14.75;98.04;101282.15;106432;1254;60546;-80
2023/09/30 03:05:54;;;;;;;;;;;;;;;14.67;97.66;101283.91;106307;1254;72550;-80
2023/09/30 03:08:22;;;;;;;;;;;;;;;14.66;97.65;101283.65;106508;1254;67274;-80
2023/09/30 03:10:49;;;;;;;;;;;;;;;14.60;97.99;101283.73;106203;1260;72765;-81
2023/09/30 03:13:18;;;;;;;;;;;;;;;14.50;98.85;101290.88;106120;1257;61619;-80
2023/09/30 03:15:46;;;;;;;;;;;;;;;14.56;98.45;101284.55;106119;1254;60482;-83
2023/09/30 03:18:14;;;;;;;;;;;;;;;14.52;98.71;101282.84;107028;1254;73884;-81
2023/09/30 03:20:43;;;;;;;;;;;;;;;14.58;98.46;101281.95;106873;1254;67665;-80
2023/09/30 03:23:14;;;;;;;;;;;;;;;14.54;98.79;101274.98;106339;1259;72819;-83
2023/09/30 03:25:42;;;;;;;;;;;;;;;14.55;99.10;101274.20;106212;1254;60523;-83
2023/09/30 03:28:09;;;;;;;;;;;;;;;14.55;99.09;101274.48;106359;1257;60585;-84
2023/09/30 10:08:57;;;;;;;;;;;;;;;32.40;32.71;101172.52;106505;1256;63742;-83
2023/09/30 10:11:25;;;;;;;;;;;;;;;32.18;32.80;101169.15;105999;1256;60602;-82
2023/09/30 10:13:56;;;;;;;;;;;;;;;31.98;32.92;101163.83;106378;1254;60412;-82
2023/09/30 10:16:37;;;;;;;;;;;;;;;31.97;32.65;101164.39;106346;1256;66992;-82
2023/09/30 10:19:08;;;;;;;;;;;;;;;32.01;32.59;101163.81;106332;1258;61101;-82
2023/09/30 10:21:36;;;;;;;;;;;;;;;31.88;32.39;101160.61;106409;1259;65594;-82
2023/09/30 10:24:34;;;;;;;;;;;;;;;31.72;32.61;101160.67;102758;1300;620730;-81
2023/09/30 10:27:20;;;;;;;;;;;;;;;31.67;32.97;101163.42;104854;1277;59326;-83
2023/09/30 10:29:49;;;;;;;;;;;;;;;31.59;32.90;101160.53;104834;1276;59258;-82
2023/09/30 10:32:17;;;;;;;;;;;;;;;31.54;33.05;101155.06;104842;1277;63310;-83
2023/09/30 10:34:48;;;;;;;;;;;;;;;31.48;33.39;101159.11;104794;1280;59177;-83
2023/09/30 10:37:22;;;;;;;;;;;;;;;31.51;33.08;101152.08;104626;1272;200297;-83
2023/09/30 10:39:58;;;;;;;;;;;;;;;31.63;32.35;101151.73;104964;1277;59396;-83
2023/09/30 10:42:45;;;;;;;;;;;;;;;31.80;31.93;101147.00;105197;1274;59354;-83
2023/09/30 10:45:33;;;;;;;;;;;;;;;32.01;31.60;101144.60;104997;1274;63511;-83
2023/09/30 10:48:20;;;;;;;;;;;;;;;32.25;30.80;101139.15;105267;1276;59751;-83
2023/09/30 10:50:52;;;;;;;;;;;;;;;32.57;30.93;101135.83;105057;1277;63738;-83
2023/09/30 10:53:19;;;;;;;;;;;;;;;32.67;30.23;101132.54;105234;1275;59652;-83
2023/09/30 10:55:51;;;;;;;;;;;;;;;32.66;30.77;101128.98;105228;1275;59561;-81
2023/09/30 10:58:19;;;;;;;;;;;;;;;32.70;30.52;101126.38;105171;1276;62864;-81
2023/09/30 11:00:53;;;;;;;;;;;;;;;32.78;30.19;101124.21;105078;1276;59988;-82
2023/09/30 11:03:22;;;;;;;;;;;;;;;32.85;29.69;101120.11;105162;1276;63829;-82
2023/09/30 11:05:51;;;;;;;;;;;;;;;32.91;29.03;101122.08;106248;1272;59259;-83
2023/09/30 11:08:40;;;;;;;;;;;;;;;32.96;29.52;101120.50;105784;1273;59682;-83
2023/09/30 11:11:08;;;;;;;;;;;;;;;33.09;29.12;101117.02;105383;1272;64162;-84
2023/09/30 11:13:36;;;;;;;;;;;;;;;33.12;28.90;101114.40;105260;1278;59649;-83
2023/09/30 11:16:08;;;;;;;;;;;;;;;33.01;28.91;101113.11;105010;1276;63797;-83
2023/09/30 11:18:38;;;;;;;;;;;;;;;32.92;28.16;101115.20;105168;1274;59625;-82
2023/09/30 11:21:10;;;;;;;;;;;;;;;32.87;28.40;101114.11;104934;1274;59777;-82
2023/09/30 11:23:40;;;;;;;;;;;;;;;33.02;28.78;101110.20;104837;1273;64233;-83
2023/09/30 11:26:09;;;;;;;;;;;;;;;33.10;29.87;101108.77;105157;1274;60357;-84
2023/09/30 11:28:37;;;;;;;;;;;;;;;33.07;30.74;101104.98;105162;1278;64078;-84
2023/09/30 11:31:07;;;;;;;;;;;;;;;32.88;31.37;101106.09;105197;1276;59664;-83
2023/09/30 11:33:48;;;;;;;;;;;;;;;32.81;31.29;101105.36;105325;1277;59592;-83
2023/09/30 11:36:16;;;;;;;;;;;;;;;32.89;30.69;101103.34;105191;1273;64171;-84
2023/09/30 11:38:48;;;;;;;;;;;;;;;32.82;30.16;101103.73;104929;1276;59764;-84
2023/09/30 11:41:18;;;;;;;;;;;;;;;32.67;29.87;101099.89;105032;1274;63762;-83
2023/09/30 11:44:01;;;;;;;;;;;;;;;32.55;29.80;101097.23;105165;1279;59663;-83
2023/09/30 11:46:29;;;;;;;;;;;;;;;32.28;29.26;101092.45;105450;1277;59152;-83
2023/09/30 11:48:58;;;;;;;;;;;;;;;32.12;29.32;101086.48;105764;1274;62846;-82
2023/09/30 11:51:27;;;;;;;;;;;;;;;32.12;29.34;101084.80;105402;1277;59815;-83
2023/09/30 11:53:55;;;;;;;;;;;;;;;32.24;28.79;101080.04;106187;1261;64289;-84
2023/09/30 11:56:28;;;;;;;;;;;;;;;32.37;28.77;101076.39;106121;1264;59659;-81
2023/09/30 11:58:56;;;;;;;;;;;;;;;32.48;27.91;101076.73;105973;1260;59561;-82
2023/09/30 12:01:25;;;;;;;;;;;;;;;32.52;27.21;101074.46;106077;1261;64182;-82
2023/09/30 12:03:55;;;;;;;;;;;;;;;32.60;27.55;101074.48;105891;1261;59844;-83
2023/09/30 12:06:25;;;;;;;;;;;;;;;32.64;27.39;101071.94;105821;1264;63756;-82
2023/09/30 12:08:53;;;;;;;;;;;;;;;32.57;27.54;101069.89;106165;1263;59675;-82
2023/09/30 12:11:23;;;;;;;;;;;;;;;32.53;27.38;101066.86;106626;1264;59694;-82
2023/09/30 12:13:51;;;;;;;;;;;;;;;32.45;27.02;101065.03;105967;1262;64259;-83
2023/09/30 12:16:19;;;;;;;;;;;;;;;32.40;27.21;101061.98;105912;1264;59744;-83
2023/09/30 12:18:47;;;;;;;;;;;;;;;32.46;26.97;101061.13;105848;1264;63797;-83
2023/09/30 12:21:19;;;;;;;;;;;;;;;32.47;27.15;101060.02;105674;1266;59697;-83
2023/09/30 12:23:48;;;;;;;;;;;;;;;32.47;26.98;101060.89;105725;1263;59585;-83
2023/09/30 12:26:17;;;;;;;;;;;;;;;32.31;26.86;101055.02;105721;1264;62869;-83
2023/09/30 12:28:48;;;;;;;;;;;;;;;32.27;26.58;101053.27;105607;1263;62264;-83
2023/09/30 12:31:15;;;;;;;;;;;;;;;32.20;25.72;101053.73;105899;1264;65812;-82
2023/09/30 12:33:44;;;;;;;;;;;;;;;32.16;26.11;101053.74;105950;1266;59682;-85
2023/09/30 12:36:13;;;;;;;;;;;;;;;32.20;26.51;101051.32;106339;1266;59605;-82
2023/09/30 12:38:41;;;;;;;;;;;;;;;32.14;26.27;101044.72;106001;1269;65131;-83
2023/09/30 12:41:09;;;;;;;;;;;;;;;32.09;26.34;101047.81;105836;1263;61814;-83
2023/09/30 12:43:37;;;;;;;;;;;;;;;32.02;26.63;101044.71;105800;1263;65776;-84
2023/09/30 12:46:05;;;;;;;;;;;;;;;31.90;26.71;101042.40;105902;1263;59627;-83
2023/09/30 12:48:33;;;;;;;;;;;;;;;31.84;26.66;101038.33;105721;1260;59570;-84
2023/09/30 12:51:04;;;;;;;;;;;;;;;31.87;26.92;101037.11;105817;1264;64104;-84
2023/09/30 12:53:33;;;;;;;;;;;;;;;31.72;26.54;101035.31;105912;1261;59775;-83
2023/09/30 12:56:00;;;;;;;;;;;;;;;31.67;26.72;101033.07;105870;1264;71809;-84
2023/09/30 12:58:28;;;;;;;;;;;;;;;31.65;26.76;101028.41;105593;1266;59722;-84
2023/09/30 13:00:56;;;;;;;;;;;;;;;31.65;27.27;101025.83;105690;1266;59758;-84
2023/09/30 13:03:42;;;;;;;;;;;;;;;31.56;27.70;101026.67;105673;1261;62892;-84
2023/09/30 13:06:10;;;;;;;;;;;;;;;31.43;27.89;101027.13;106345;1263;59650;-83
2023/09/30 13:08:38;;;;;;;;;;;;;;;31.39;28.20;101023.27;105974;1265;63739;-83
2023/09/30 13:11:06;;;;;;;;;;;;;;;31.34;28.46;101022.06;105752;1266;59561;-84
2023/09/30 13:13:35;;;;;;;;;;;;;;;31.30;28.57;101020.21;105821;1263;59544;-84
2023/09/30 13:16:05;;;;;;;;;;;;;;;31.26;28.73;101020.06;105598;1263;62849;-83
2023/09/30 13:18:33;;;;;;;;;;;;;;;31.23;29.03;101014.83;105630;1267;59933;-83
2023/09/30 13:21:01;;;;;;;;;;;;;;;31.19;29.35;101010.48;105758;1266;62514;-83
2023/09/30 13:23:30;;;;;;;;;;;;;;;31.19;29.47;101008.22;105736;1267;59838;-83
2023/09/30 13:25:58;;;;;;;;;;;;;;;31.11;29.53;101004.38;105704;1264;59742;-83
2023/09/30 13:28:27;;;;;;;;;;;;;;;31.00;29.64;100998.99;105736;1266;64146;-82
2023/09/30 13:30:55;;;;;;;;;;;;;;;30.99;29.80;100997.62;105771;1263;59883;-83
2023/09/30 13:33:23;;;;;;;;;;;;;;;31.04;29.64;100995.60;105792;1261;63818;-84
2023/09/30 13:35:51;;;;;;;;;;;;;;;31.02;29.58;100994.89;105710;1264;59708;-83
2023/09/30 13:38:19;;;;;;;;;;;;;;;30.99;29.86;100992.71;105632;1264;60215;-84
2023/09/30 13:40:46;;;;;;;;;;;;;;;30.97;30.04;100991.60;105881;1264;62865;-83
2023/09/30 13:43:14;;;;;;;;;;;;;;;30.97;30.48;100990.47;105829;1264;59857;-83
2023/09/30 13:45:41;;;;;;;;;;;;;;;30.92;30.90;100988.39;105741;1263;62482;-83
2023/09/30 13:48:09;;;;;;;;;;;;;;;30.94;31.10;100985.48;105817;1265;59752;-83
2023/09/30 13:50:37;;;;;;;;;;;;;;;30.83;31.48;100982.42;105795;1261;59726;-83
2023/09/30 13:53:05;;;;;;;;;;;;;;;30.77;31.59;100980.80;105622;1264;64301;-83
2023/09/30 13:55:33;;;;;;;;;;;;;;;30.70;31.66;100980.23;105875;1263;59568;-83
2023/09/30 13:58:00;;;;;;;;;;;;;;;30.62;31.58;100979.94;105716;1262;64263;-83
2023/09/30 14:00:28;;;;;;;;;;;;;;;30.57;31.63;100979.30;105718;1264;59509;-84
2023/09/30 14:02:56;;;;;;;;;;;;;;;30.50;31.55;100976.48;105730;1262;59684;-83
2023/09/30 14:05:24;;;;;;;;;;;;;;;30.41;31.37;100979.62;106397;1260;63010;-82
2023/09/30 14:07:52;;;;;;;;;;;;;;;30.34;31.27;100978.16;106324;1266;60401;-83
2023/09/30 14:10:19;;;;;;;;;;;;;;;30.26;31.54;100974.52;105941;1264;62467;-83
2023/09/30 14:12:47;;;;;;;;;;;;;;;30.21;31.49;100971.92;105855;1260;59730;-83
2023/09/30 14:15:15;;;;;;;;;;;;;;;30.25;31.68;100970.02;105997;1261;59827;-83
2023/09/30 14:17:44;;;;;;;;;;;;;;;30.18;31.46;100970.32;105821;1260;64192;-83
2023/09/30 14:20:13;;;;;;;;;;;;;;;30.09;31.15;100964.92;105646;1264;59679;-83
2023/09/30 14:22:40;;;;;;;;;;;;;;;29.96;31.38;100968.12;105841;1260;62530;-83
2023/09/30 14:25:08;;;;;;;;;;;;;;;29.89;31.45;100966.10;105833;1265;59746;-83
2023/09/30 14:27:36;;;;;;;;;;;;;;;29.72;31.77;100964.52;105870;1264;59625;-83
2023/09/30 14:30:04;;;;;;;;;;;;;;;29.64;31.87;100963.20;105903;1265;64328;-83
2023/09/30 14:32:35;;;;;;;;;;;;;;;29.53;31.77;100960.35;105912;1264;59803;-83
2023/09/30 14:35:05;;;;;;;;;;;;;;;29.46;31.76;100957.44;105892;1260;62489;-83
2023/09/30 14:37:33;;;;;;;;;;;;;;;29.42;31.85;100954.36;105642;1261;60584;-83
2023/09/30 14:40:00;;;;;;;;;;;;;;;29.38;32.14;100958.36;105730;1261;60624;-83
2023/09/30 14:42:28;;;;;;;;;;;;;;;29.25;32.55;100958.08;105860;1261;64880;-83
2023/09/30 14:44:56;;;;;;;;;;;;;;;29.10;32.59;100955.51;105822;1261;60554;-83
2023/09/30 14:47:24;;;;;;;;;;;;;;;29.04;32.53;100955.29;105651;1264;62473;-83
2023/09/30 14:49:52;;;;;;;;;;;;;;;28.95;32.57;100955.80;105731;1266;60551;-83
2023/09/30 14:52:19;;;;;;;;;;;;;;;28.84;32.75;100960.30;105904;1260;60423;-83
2023/09/30 14:54:47;;;;;;;;;;;;;;;28.82;33.04;100960.61;105686;1264;63709;-83
2023/09/30 14:57:15;;;;;;;;;;;;;;;28.74;33.10;100961.69;105859;1264;60382;-83
2023/09/30 14:59:44;;;;;;;;;;;;;;;28.68;33.37;100963.11;105786;1261;63804;-83
2023/09/30 15:02:12;;;;;;;;;;;;;;;28.58;33.66;100961.66;105783;1264;60531;-83
2023/09/30 15:04:39;;;;;;;;;;;;;;;28.47;34.30;100963.27;105808;1263;60438;-84
2023/09/30 15:07:07;;;;;;;;;;;;;;;28.44;35.02;100963.31;105633;1264;65002;-83
2023/09/30 15:09:36;;;;;;;;;;;;;;;28.29;36.02;100958.11;105718;1261;60408;-83
2023/09/30 15:12:05;;;;;;;;;;;;;;;28.19;36.44;100961.08;105680;1262;63747;-83
2023/09/30 15:14:32;;;;;;;;;;;;;;;28.07;36.78;100964.58;105840;1264;60463;-83
2023/09/30 15:17:00;;;;;;;;;;;;;;;27.91;37.13;100966.75;105845;1262;61068;-83
2023/09/30 15:19:28;;;;;;;;;;;;;;;27.72;37.48;100969.74;105861;1266;64976;-84
2023/09/30 15:21:55;;;;;;;;;;;;;;;27.49;37.88;100973.23;105781;1265;60554;-83
2023/09/30 15:24:23;;;;;;;;;;;;;;;27.34;38.31;100973.20;105751;1264;63863;-83
2023/09/30 15:26:50;;;;;;;;;;;;;;;27.21;38.46;100970.23;105903;1261;60469;-83
2023/09/30 15:29:18;;;;;;;;;;;;;;;27.04;38.86;100969.00;105893;1261;60605;-83
2023/09/30 15:31:46;;;;;;;;;;;;;;;26.96;39.28;100973.63;105871;1263;66245;-83
2023/09/30 15:34:13;;;;;;;;;;;;;;;26.92;39.72;100972.29;105790;1261;60484;-84
2023/09/30 15:36:41;;;;;;;;;;;;;;;26.68;40.37;100971.92;105852;1261;63773;-83
2023/09/30 15:39:10;;;;;;;;;;;;;;;26.43;41.11;100972.88;107116;1261;60469;-82
2023/09/30 15:41:39;;;;;;;;;;;;;;;26.26;41.79;100974.02;106224;1260;60544;-83
2023/09/30 15:44:07;;;;;;;;;;;;;;;26.15;42.52;100971.52;106256;1263;63760;-83
2023/09/30 15:46:36;;;;;;;;;;;;;;;26.04;43.30;100974.19;108050;1261;60337;-83
2023/09/30 15:49:04;;;;;;;;;;;;;;;25.75;43.89;100978.26;106691;1260;63817;-84
2023/09/30 15:51:31;;;;;;;;;;;;;;;25.43;44.54;100975.22;105911;1264;60393;-83
2023/09/30 15:53:59;;;;;;;;;;;;;;;25.38;44.86;100972.98;107709;1263;58601;-83
2023/09/30 15:56:27;;;;;;;;;;;;;;;25.28;45.57;100976.84;106951;1262;63705;-83
2023/09/30 15:59:02;;;;;;;;;;;;;;;25.15;46.23;100977.34;105990;1263;68917;-84
2023/09/30 16:01:30;;;;;;;;;;;;;;;24.98;46.62;100976.45;105948;1267;73182;-84
2023/09/30 16:03:57;;;;;;;;;;;;;;;24.83;46.59;100974.85;105865;1264;60445;-83
2023/09/30 16:06:26;;;;;;;;;;;;;;;24.63;46.94;100976.06;107804;1261;59381;-84
2023/09/30 16:08:53;;;;;;;;;;;;;;;24.34;47.97;100978.59;105840;1264;74068;-84
2023/09/30 16:11:25;;;;;;;;;;;;;;;24.18;48.43;100975.92;105914;1261;68913;-84
2023/09/30 16:13:53;;;;;;;;;;;;;;;24.00;48.48;100975.95;105811;1262;71393;-84
2023/09/30 16:16:20;;;;;;;;;;;;;;;23.85;49.04;100975.00;107408;1261;60443;-84
2023/09/30 16:18:48;;;;;;;;;;;;;;;23.71;49.63;100977.70;106069;1261;60549;-84
2023/09/30 16:21:16;;;;;;;;;;;;;;;23.57;50.31;100975.52;105941;1263;73853;-83
2023/09/30 16:23:44;;;;;;;;;;;;;;;23.42;50.75;100974.31;105927;1260;68382;-84
2023/09/30 16:26:15;;;;;;;;;;;;;;;23.32;51.51;100970.67;105799;1266;72697;-83
2023/09/30 16:28:43;;;;;;;;;;;;;;;23.17;52.64;100970.71;105765;1260;60888;-84
2023/09/30 16:31:10;;;;;;;;;;;;;;;22.96;54.25;100971.02;105849;1261;60501;-84
2023/09/30 16:33:38;;;;;;;;;;;;;;;22.79;56.18;100967.77;105814;1262;72937;-84
2023/09/30 16:36:06;;;;;;;;;;;;;;;22.68;58.51;100965.17;105882;1261;68627;-82
2023/09/30 16:38:34;;;;;;;;;;;;;;;22.60;60.15;100966.53;105883;1263;72682;-84
2023/09/30 16:41:02;;;;;;;;;;;;;;;22.56;61.54;100968.45;105880;1261;60408;-83
2023/09/30 16:43:30;;;;;;;;;;;;;;;22.53;62.37;100966.13;105864;1263;60330;-83
2023/09/30 16:46:00;;;;;;;;;;;;;;;22.41;63.27;100965.67;105920;1261;73849;-83
2023/09/30 16:48:28;;;;;;;;;;;;;;;22.36;64.17;100968.60;105719;1264;68294;-84
2023/09/30 16:50:56;;;;;;;;;;;;;;;22.30;65.44;100965.23;105729;1261;72771;-84
2023/09/30 16:53:24;;;;;;;;;;;;;;;22.24;66.16;100969.64;105716;1260;61702;-84
2023/09/30 16:55:52;;;;;;;;;;;;;;;22.23;66.51;100964.58;105918;1261;60785;-85
2023/09/30 16:58:20;;;;;;;;;;;;;;;22.17;67.23;100965.30;105902;1265;73813;-84
2023/09/30 17:00:47;;;;;;;;;;;;;;;22.06;67.88;100967.87;105699;1261;68678;-84
2023/09/30 17:03:15;;;;;;;;;;;;;;;21.86;69.20;100965.60;106860;1261;72718;-82
2023/09/30 17:05:43;;;;;;;;;;;;;;;21.68;70.35;100963.36;106841;1261;60878;-83
2023/09/30 17:08:11;;;;;;;;;;;;;;;21.52;71.51;100961.17;105764;1261;60599;-84
2023/09/30 17:10:40;;;;;;;;;;;;;;;21.46;71.49;100964.06;106006;1260;72626;-84
2023/09/30 17:13:08;;;;;;;;;;;;;;;21.34;72.59;100961.71;105777;1263;68723;-83
2023/09/30 17:15:40;;;;;;;;;;;;;;;21.30;74.11;100958.54;106016;1263;71449;-83
2023/09/30 17:18:08;;;;;;;;;;;;;;;21.30;74.92;100956.38;105766;1260;60564;-83
2023/09/30 17:20:40;;;;;;;;;;;;;;;21.25;76.03;100960.90;106360;1261;60328;-84
2023/09/30 17:23:08;;;;;;;;;;;;;;;21.21;76.84;100961.13;105797;1260;73854;-83
2023/09/30 17:25:35;;;;;;;;;;;;;;;21.16;77.77;100960.16;105983;1261;69208;-84
2023/09/30 17:28:03;;;;;;;;;;;;;;;21.15;78.66;100959.15;105740;1264;72827;-82
2023/09/30 17:30:32;;;;;;;;;;;;;;;21.17;78.53;100958.35;105984;1260;60578;-83
2023/09/30 17:33:07;;;;;;;;;;;;;;;21.07;78.10;100958.30;105933;1260;60576;-83
2023/09/30 17:35:39;;;;;;;;;;;;;;;20.98;79.26;100960.74;105944;1261;73901;-84
2023/09/30 17:38:07;;;;;;;;;;;;;;;20.89;81.87;100959.50;105667;1265;68612;-82
2023/09/30 17:40:38;;;;;;;;;;;;;;;20.85;82.69;100958.80;105835;1264;71015;-84
2023/09/30 17:43:06;;;;;;;;;;;;;;;20.83;83.29;100960.61;105831;1261;60522;-84
2023/09/30 17:45:34;;;;;;;;;;;;;;;20.85;83.28;100959.98;106008;1263;60449;-83
2023/09/30 17:48:02;;;;;;;;;;;;;;;20.88;82.73;100959.22;105879;1265;72668;-83
2023/09/30 17:50:30;;;;;;;;;;;;;;;20.83;83.27;100962.90;105858;1261;69307;-83
2023/09/30 17:52:58;;;;;;;;;;;;;;;20.81;83.60;100957.79;106306;1262;71830;-83
2023/09/30 17:55:25;;;;;;;;;;;;;;;20.68;84.29;100956.39;106086;1264;60573;-84
2023/09/30 17:57:53;;;;;;;;;;;;;;;20.49;83.63;100956.85;107165;1261;58553;-82
2023/09/30 18:00:21;;;;;;;;;;;;;;;20.44;83.11;100950.38;105844;1265;73869;-82
2023/09/30 18:02:49;;;;;;;;;;;;;;;20.38;82.67;100953.32;105975;1265;71491;-84
2023/09/30 18:05:17;;;;;;;;;;;;;;;20.34;82.02;100955.05;105965;1263;71482;-84
2023/09/30 18:07:44;;;;;;;;;;;;;;;20.26;83.17;100958.27;105795;1261;60591;-84
2023/09/30 18:10:13;;;;;;;;;;;;;;;20.18;84.62;100957.81;105912;1261;60526;-82
2023/09/30 18:12:40;;;;;;;;;;;;;;;20.17;85.49;100954.41;105978;1260;73902;-82
2023/09/30 18:15:08;;;;;;;;;;;;;;;20.08;86.46;100958.95;105952;1261;68447;-82
2023/09/30 18:17:36;;;;;;;;;;;;;;;19.98;87.04;100960.09;105825;1261;72688;-82
2023/09/30 18:20:05;;;;;;;;;;;;;;;19.90;87.01;100956.20;105962;1261;60465;-84
2023/09/30 18:22:36;;;;;;;;;;;;;;;19.93;86.61;100961.97;106675;1262;60613;-83
2023/09/30 18:25:08;;;;;;;;;;;;;;;19.88;87.62;100959.98;105788;1260;72808;-84
2023/09/30 18:27:36;;;;;;;;;;;;;;;19.87;88.09;100960.44;105851;1261;67427;-84
2023/09/30 18:30:07;;;;;;;;;;;;;;;19.86;88.37;100959.11;105935;1261;75085;-84
2023/09/30 18:32:35;;;;;;;;;;;;;;;19.86;88.40;100957.94;106187;1264;62786;-82
2023/09/30 18:35:04;;;;;;;;;;;;;;;19.88;88.02;100956.70;105949;1261;60679;-82
2023/09/30 18:37:31;;;;;;;;;;;;;;;19.90;86.67;100958.08;105933;1261;73852;-84
2023/09/30 18:39:59;;;;;;;;;;;;;;;19.76;85.57;100958.99;106040;1263;70226;-83
2023/09/30 18:42:27;;;;;;;;;;;;;;;19.61;85.37;100961.64;106032;1261;72151;-84
2023/09/30 18:44:55;;;;;;;;;;;;;;;19.51;86.08;100954.15;106471;1260;62019;-85
2023/09/30 18:47:23;;;;;;;;;;;;;;;19.48;86.62;100956.17;108512;1261;60852;-82
2023/09/30 18:49:50;;;;;;;;;;;;;;;19.44;87.10;100954.05;107190;1264;74710;-85
2023/09/30 18:52:18;;;;;;;;;;;;;;;19.40;87.76;100954.39;106030;1261;67434;-82
2023/09/30 18:54:46;;;;;;;;;;;;;;;19.42;87.96;100955.79;105779;1261;73263;-82
2023/09/30 18:57:15;;;;;;;;;;;;;;;19.45;87.86;100952.39;105774;1263;60498;-83
2023/09/30 18:59:42;;;;;;;;;;;;;;;19.45;88.37;100953.39;105704;1263;60635;-83
2023/09/30 19:02:11;;;;;;;;;;;;;;;19.39;89.18;100955.13;105786;1261;76474;-85
2023/09/30 19:04:39;;;;;;;;;;;;;;;19.34;89.29;100953.86;105778;1264;69665;-84
2023/09/30 19:07:08;;;;;;;;;;;;;;;19.37;87.97;100952.16;105637;1263;72926;-82
2023/09/30 19:09:36;;;;;;;;;;;;;;;19.34;87.21;100951.41;105804;1264;60309;-82
2023/09/30 19:12:04;;;;;;;;;;;;;;;19.26;88.43;100953.11;105925;1261;60428;-81